createdAt,value
2016-11-28T09:19:52.538Z,704
2016-11-28T09:20:33.324Z,704
2016-11-28T09:21:14.169Z,704
2016-11-28T09:21:55.063Z,704
2016-11-28T09:22:36.556Z,704
2016-11-28T09:23:17.347Z,704
2016-11-28T09:23:58.129Z,708
2016-11-28T09:24:38.917Z,704
2016-11-28T09:25:19.740Z,704
2016-11-28T09:26:00.673Z,708
2016-11-28T09:26:42.100Z,708
2016-11-28T09:27:22.235Z,708
2016-11-28T09:28:03.015Z,704
2016-11-28T09:28:43.777Z,708
2016-11-28T09:29:24.538Z,708
2016-11-28T09:30:05.372Z,708
2016-11-28T09:30:46.141Z,708
2016-11-28T09:31:26.955Z,712
2016-11-28T09:32:07.759Z,708
2016-11-28T09:32:48.542Z,712
2016-11-28T09:33:29.317Z,712
2016-11-28T09:34:10.612Z,708
2016-11-28T09:34:50.897Z,712
2016-11-28T09:35:31.742Z,712
2016-11-28T09:36:12.597Z,712
2016-11-28T09:36:53.331Z,712
2016-11-28T09:37:34.135Z,716
2016-11-28T09:38:14.884Z,712
2016-11-28T09:38:55.700Z,716
2016-11-28T09:39:36.469Z,712
2016-11-28T09:40:17.256Z,716
2016-11-28T09:40:58.249Z,716
2016-11-28T09:41:39.082Z,716
2016-11-28T09:42:20.010Z,716
2016-11-28T09:43:01.419Z,720
2016-11-28T09:43:42.260Z,720
2016-11-28T09:44:23.136Z,716
2016-11-28T09:45:04.570Z,720
2016-11-28T09:45:45.487Z,720
2016-11-28T09:46:26.292Z,720
2016-11-28T09:47:07.073Z,720
2016-11-28T09:47:47.859Z,724
2016-11-28T09:48:28.651Z,720
2016-11-28T09:49:09.420Z,724
2016-11-28T09:49:51.129Z,724
2016-11-28T09:50:31.969Z,728
2016-11-28T09:51:12.800Z,728
2016-11-28T09:51:53.648Z,728
2016-11-28T09:52:34.442Z,728
2016-11-28T09:53:15.179Z,728
2016-11-28T09:53:55.941Z,728
2016-11-28T09:54:36.734Z,728
2016-11-28T09:55:17.508Z,732
2016-11-28T09:55:59.021Z,732
2016-11-28T09:56:39.795Z,728
2016-11-28T09:57:21.111Z,732
2016-11-28T09:58:01.888Z,732
2016-11-28T09:58:42.745Z,732
2016-11-28T09:59:23.581Z,732
2016-11-28T10:00:04.443Z,732
2016-11-28T10:00:45.195Z,732
2016-11-28T10:01:27.632Z,736
2016-11-28T10:02:08.124Z,732
2016-11-28T10:02:49.184Z,736
2016-11-28T10:03:29.959Z,732
2016-11-28T10:04:10.736Z,732
2016-11-28T10:04:51.551Z,736
2016-11-28T10:05:33.125Z,736
2016-11-28T10:06:13.622Z,736
2016-11-28T10:06:54.134Z,736
2016-11-28T10:07:34.934Z,736
2016-11-28T10:08:15.759Z,736
2016-11-28T10:08:56.535Z,736
2016-11-28T10:09:37.281Z,736
2016-11-28T10:10:18.624Z,736
2016-11-28T10:10:59.624Z,736
2016-11-28T10:11:40.123Z,736
2016-11-28T10:12:20.419Z,736
2016-11-28T10:13:01.214Z,736
2016-11-28T10:13:42.642Z,736
2016-11-28T10:14:22.784Z,736
2016-11-28T10:15:03.575Z,732
2016-11-28T10:15:44.363Z,732
2016-11-28T10:16:25.139Z,736
2016-11-28T10:17:06.637Z,732
2016-11-28T10:17:47.637Z,732
2016-11-28T10:18:27.488Z,732
2016-11-28T10:19:08.302Z,736
2016-11-28T10:19:49.841Z,736
2016-11-28T10:20:31.628Z,736
2016-11-28T10:21:12.395Z,732
2016-11-28T10:21:53.154Z,732
2016-11-28T10:22:33.910Z,732
2016-11-28T10:23:14.733Z,732
2016-11-28T10:23:56.154Z,736
2016-11-28T10:24:37.212Z,736
2016-11-28T10:25:18.001Z,736
2016-11-28T10:25:58.801Z,736
2016-11-28T10:26:41.902Z,736
2016-11-28T10:27:22.703Z,736
2016-11-28T10:28:04.136Z,736
2016-11-28T10:28:44.923Z,732
2016-11-28T10:29:26.367Z,732
2016-11-28T10:30:07.210Z,732
2016-11-28T10:30:48.027Z,732
2016-11-28T10:31:29.649Z,732
2016-11-28T10:32:10.674Z,732
2016-11-28T10:32:52.343Z,732
2016-11-28T10:33:33.135Z,732
2016-11-28T10:34:14.851Z,732
2016-11-28T10:34:55.670Z,728
2016-11-28T10:35:36.498Z,728
2016-11-28T10:36:17.293Z,732
2016-11-28T10:36:58.093Z,732
2016-11-28T10:37:38.902Z,732
2016-11-28T10:38:19.701Z,732
2016-11-28T10:39:01.403Z,732
2016-11-28T10:39:42.201Z,732
2016-11-28T10:40:22.973Z,728
2016-11-28T10:41:03.773Z,728
2016-11-28T10:41:45.149Z,728
2016-11-28T10:42:25.657Z,728
2016-11-28T10:43:06.498Z,732
2016-11-28T10:43:47.294Z,728
2016-11-28T10:44:28.643Z,728
2016-11-28T10:45:08.863Z,728
2016-11-28T10:45:49.657Z,732
2016-11-28T10:46:31.148Z,728
2016-11-28T10:47:11.198Z,728
2016-11-28T10:47:52.001Z,728
2016-11-28T10:48:32.753Z,728
2016-11-28T10:49:14.146Z,728
2016-11-28T10:49:55.158Z,728
2016-11-28T10:50:36.642Z,728
2016-11-28T10:51:17.562Z,728
2016-11-28T10:51:59.648Z,728
2016-11-28T10:52:39.676Z,724
2016-11-28T10:53:21.655Z,728
2016-11-28T10:54:02.121Z,728
2016-11-28T10:54:43.010Z,728
2016-11-28T10:55:25.160Z,728
2016-11-28T10:56:06.094Z,728
2016-11-28T10:56:46.829Z,728
2016-11-28T10:57:27.642Z,728
2016-11-28T10:58:08.423Z,728
2016-11-28T10:58:49.213Z,728
2016-11-28T10:59:30.003Z,724
2016-11-28T11:00:10.798Z,728
2016-11-28T11:00:51.619Z,728
2016-11-28T11:01:33.153Z,728
2016-11-28T11:02:13.207Z,728
2016-11-28T11:02:54.046Z,728
2016-11-28T11:03:34.840Z,728
2016-11-28T11:04:15.633Z,724
2016-11-28T11:04:56.424Z,720
2016-11-28T11:05:37.224Z,724
2016-11-28T11:06:17.976Z,724
2016-11-28T11:06:58.760Z,724
2016-11-28T11:07:39.530Z,728
2016-11-28T11:08:20.339Z,724
2016-11-28T11:09:02.559Z,724
2016-11-28T11:09:44.159Z,724
2016-11-28T11:10:24.119Z,728
2016-11-28T11:11:04.942Z,728
2016-11-28T11:11:46.284Z,724
2016-11-28T11:12:27.038Z,728
2016-11-28T11:13:07.833Z,728
2016-11-28T11:13:48.623Z,728
2016-11-28T11:14:30.163Z,728
2016-11-28T11:15:10.209Z,728
2016-11-28T11:15:51.019Z,732
2016-11-28T11:16:32.876Z,728
2016-11-28T11:17:13.629Z,728
2016-11-28T11:17:54.435Z,732
2016-11-28T11:18:36.673Z,732
2016-11-28T11:19:18.169Z,732
2016-11-28T11:19:58.663Z,732
2016-11-28T11:20:39.665Z,732
2016-11-28T11:21:20.423Z,732
2016-11-28T11:22:01.238Z,736
2016-11-28T11:22:42.668Z,732
2016-11-28T11:23:24.671Z,736
2016-11-28T11:24:05.170Z,736
2016-11-28T11:24:45.440Z,736
2016-11-28T11:25:26.208Z,736
2016-11-28T11:26:07.673Z,736
2016-11-28T11:26:48.802Z,736
2016-11-28T11:27:30.170Z,732
2016-11-28T11:28:10.385Z,736
2016-11-28T11:28:52.175Z,736
2016-11-28T11:29:32.669Z,732
2016-11-28T11:30:14.182Z,732
2016-11-28T11:30:54.791Z,732
2016-11-28T11:31:36.181Z,732
2016-11-28T11:32:17.386Z,732
2016-11-28T11:32:58.184Z,732
2016-11-28T11:33:38.974Z,732
2016-11-28T11:34:19.791Z,736
2016-11-28T11:35:00.592Z,736
2016-11-28T11:35:41.386Z,732
2016-11-28T11:36:22.684Z,732
2016-11-28T11:37:03.880Z,728
2016-11-28T11:37:44.697Z,732
2016-11-28T11:38:26.176Z,732
2016-11-28T11:39:06.273Z,728
2016-11-28T11:39:47.056Z,732
2016-11-28T11:40:28.675Z,732
2016-11-28T11:41:09.195Z,728
2016-11-28T11:41:50.189Z,728
2016-11-28T11:42:31.069Z,728
2016-11-28T11:43:12.678Z,728
2016-11-28T11:43:52.718Z,728
2016-11-28T11:44:34.466Z,728
2016-11-28T11:45:15.278Z,728
2016-11-28T11:45:56.679Z,728
2016-11-28T11:46:36.892Z,724
2016-11-28T11:47:17.697Z,728
2016-11-28T11:48:00.183Z,728
2016-11-28T11:48:40.191Z,728
2016-11-28T11:49:20.996Z,728
2016-11-28T11:50:02.692Z,728
2016-11-28T11:50:42.662Z,728
2016-11-28T11:51:23.452Z,732
2016-11-28T11:52:04.252Z,732
2016-11-28T11:52:45.957Z,728
2016-11-28T11:53:27.604Z,728
2016-11-28T11:54:08.373Z,732
2016-11-28T11:54:49.167Z,732
2016-11-28T11:55:29.995Z,728
2016-11-28T11:56:10.827Z,732
2016-11-28T11:56:51.643Z,732
2016-11-28T11:57:33.199Z,732
2016-11-28T11:58:13.243Z,728
2016-11-28T11:58:53.988Z,728
2016-11-28T11:59:35.750Z,728
2016-11-28T12:00:18.191Z,728
2016-11-28T12:00:58.101Z,728
2016-11-28T12:01:38.920Z,732
2016-11-28T12:02:20.399Z,732
2016-11-28T12:03:02.169Z,732
2016-11-28T12:03:43.689Z,732
2016-11-28T12:04:23.854Z,732
2016-11-28T12:05:04.654Z,728
2016-11-28T12:05:45.482Z,728
2016-11-28T12:06:26.310Z,732
2016-11-28T12:07:07.586Z,728
2016-11-28T12:07:48.438Z,728
2016-11-28T12:08:30.693Z,728
2016-11-28T12:09:10.547Z,728
2016-11-28T12:09:51.933Z,728
2016-11-28T12:10:33.965Z,728
2016-11-28T12:11:15.414Z,728
2016-11-28T12:11:57.693Z,724
2016-11-28T12:12:37.692Z,724
2016-11-28T12:13:19.195Z,724
2016-11-28T12:13:59.324Z,724
2016-11-28T12:14:41.695Z,724
2016-11-28T12:15:22.200Z,728
2016-11-28T12:16:03.698Z,724
2016-11-28T12:16:44.911Z,724
2016-11-28T12:17:26.197Z,724
2016-11-28T12:18:06.510Z,728
2016-11-28T12:18:47.278Z,728
2016-11-28T12:19:28.787Z,724
2016-11-28T12:20:10.438Z,728
2016-11-28T12:20:51.958Z,728
2016-11-28T12:21:32.756Z,728
2016-11-28T12:22:13.535Z,728
2016-11-28T12:22:54.309Z,728
2016-11-28T12:23:35.096Z,728
2016-11-28T12:24:16.547Z,728
2016-11-28T12:24:57.912Z,728
2016-11-28T12:25:38.739Z,728
2016-11-28T12:26:19.501Z,732
2016-11-28T12:27:00.244Z,728
2016-11-28T12:27:41.048Z,728
2016-11-28T12:28:21.852Z,732
2016-11-28T12:29:02.623Z,728
2016-11-28T12:29:43.389Z,732
2016-11-28T12:30:24.165Z,728
2016-11-28T12:31:04.950Z,732
2016-11-28T12:31:46.214Z,732
2016-11-28T12:32:26.500Z,736
2016-11-28T12:33:07.260Z,736
2016-11-28T12:33:48.060Z,728
2016-11-28T12:34:28.831Z,732
2016-11-28T12:35:09.612Z,732
2016-11-28T12:35:50.378Z,732
2016-11-28T12:36:31.712Z,732
2016-11-28T12:37:11.951Z,732
2016-11-28T12:37:52.707Z,732
2016-11-28T12:38:33.479Z,732
2016-11-28T12:39:14.234Z,732
2016-11-28T12:39:54.998Z,732
2016-11-28T12:40:35.786Z,732
2016-11-28T12:41:16.557Z,732
2016-11-28T12:41:57.360Z,732
2016-11-28T12:42:38.126Z,732
2016-11-28T12:43:18.911Z,732
2016-11-28T12:43:59.740Z,728
2016-11-28T12:44:40.505Z,732
2016-11-28T12:45:21.291Z,732
2016-11-28T12:46:02.088Z,732
2016-11-28T12:46:42.938Z,728
2016-11-28T12:47:23.743Z,732
2016-11-28T12:48:04.530Z,728
2016-11-28T12:48:45.340Z,728
2016-11-28T12:49:26.166Z,728
2016-11-28T12:50:08.416Z,728
2016-11-28T12:51:42.733Z,728
2016-11-28T12:52:24.223Z,728
2016-11-28T12:53:04.328Z,724
2016-11-28T12:53:45.109Z,728
2016-11-28T12:54:25.886Z,728
2016-11-28T12:55:07.220Z,728
2016-11-28T12:55:47.456Z,724
2016-11-28T12:56:28.230Z,728
2016-11-28T12:57:09.002Z,724
2016-11-28T12:57:49.762Z,728
2016-11-28T12:58:30.548Z,724
2016-11-28T12:59:12.295Z,720
2016-11-28T12:59:53.050Z,724
2016-11-28T13:00:33.846Z,720
2016-11-28T13:01:15.226Z,724
2016-11-28T13:01:55.433Z,724
2016-11-28T13:02:36.730Z,720
2016-11-28T13:03:17.723Z,720
2016-11-28T13:03:57.764Z,720
2016-11-28T13:04:38.525Z,720
2016-11-28T13:05:19.309Z,720
2016-11-28T13:06:00.091Z,720
2016-11-28T13:06:40.901Z,720
2016-11-28T13:07:22.463Z,720
2016-11-28T13:08:03.800Z,720
2016-11-28T13:08:44.588Z,720
2016-11-28T13:09:26.230Z,720
2016-11-28T13:10:06.138Z,720
2016-11-28T13:10:46.905Z,720
2016-11-28T13:11:28.231Z,720
2016-11-28T13:12:08.451Z,724
2016-11-28T13:12:49.217Z,720
2016-11-28T13:13:29.999Z,720
2016-11-28T13:14:10.815Z,720
2016-11-28T13:14:51.587Z,720
2016-11-28T13:15:32.323Z,720
2016-11-28T13:16:13.132Z,724
2016-11-28T13:16:53.900Z,720
2016-11-28T13:17:34.657Z,724
2016-11-28T13:18:15.463Z,720
2016-11-28T13:18:56.253Z,720
2016-11-28T13:19:37.019Z,720
2016-11-28T13:20:17.808Z,720
2016-11-28T13:20:59.335Z,716
2016-11-28T13:21:40.122Z,720
2016-11-28T13:22:20.893Z,720
2016-11-28T13:23:01.622Z,720
2016-11-28T13:23:42.415Z,720
2016-11-28T13:24:23.170Z,720
2016-11-28T13:25:03.947Z,720
2016-11-28T13:25:44.706Z,720
2016-11-28T13:26:25.478Z,720
2016-11-28T13:27:06.273Z,720
2016-11-28T13:27:47.047Z,720
2016-11-28T13:28:28.357Z,720
2016-11-28T13:29:09.137Z,720
2016-11-28T13:29:49.943Z,720
2016-11-28T13:30:30.764Z,720
2016-11-28T13:31:11.538Z,720
2016-11-28T13:31:52.296Z,720
2016-11-28T13:32:33.741Z,720
2016-11-28T13:33:13.831Z,720
2016-11-28T13:33:54.602Z,720
2016-11-28T13:34:35.377Z,724
2016-11-28T13:35:16.153Z,724
2016-11-28T13:35:57.855Z,724
2016-11-28T13:36:38.623Z,724
2016-11-28T13:37:19.398Z,724
2016-11-28T13:38:00.177Z,724
2016-11-28T13:38:40.998Z,724
2016-11-28T13:39:21.767Z,724
2016-11-28T13:40:02.522Z,720
2016-11-28T13:40:43.298Z,724
2016-11-28T13:41:24.083Z,724
2016-11-28T13:42:04.851Z,724
2016-11-28T13:42:45.611Z,724
2016-11-28T13:43:26.976Z,724
2016-11-28T13:44:07.768Z,724
2016-11-28T13:44:48.548Z,724
2016-11-28T13:45:29.348Z,728
2016-11-28T13:46:10.106Z,724
2016-11-28T13:46:50.851Z,728
2016-11-28T13:47:31.650Z,728
2016-11-28T13:48:12.407Z,728
2016-11-28T13:48:53.239Z,728
2016-11-28T13:49:34.010Z,728
2016-11-28T13:50:14.783Z,732
2016-11-28T13:50:55.550Z,732
2016-11-28T13:51:36.325Z,728
2016-11-28T13:52:17.118Z,732
2016-11-28T13:52:57.893Z,728
2016-11-28T13:53:38.663Z,728
2016-11-28T13:54:19.469Z,728
2016-11-28T13:55:00.255Z,728
2016-11-28T13:55:41.046Z,728
2016-11-28T13:56:21.858Z,728
2016-11-28T13:57:02.616Z,728
2016-11-28T13:57:43.387Z,728
2016-11-28T13:58:24.168Z,728
2016-11-28T13:59:04.965Z,732
2016-11-28T13:59:45.718Z,728
2016-11-28T14:00:26.512Z,728
2016-11-28T14:01:07.275Z,728
2016-11-28T14:01:48.025Z,728
2016-11-28T14:02:28.868Z,728
2016-11-28T14:03:10.261Z,728
2016-11-28T14:03:50.378Z,732
2016-11-28T14:04:31.177Z,728
2016-11-28T14:05:11.947Z,728
2016-11-28T14:05:52.737Z,732
2016-11-28T14:06:33.568Z,732
2016-11-28T14:07:14.415Z,732
2016-11-28T14:07:55.212Z,732
2016-11-28T14:08:36.020Z,732
2016-11-28T14:09:16.788Z,732
2016-11-28T14:09:57.578Z,732
2016-11-28T14:10:38.351Z,732
2016-11-28T14:11:19.155Z,728
2016-11-28T14:11:59.949Z,728
2016-11-28T14:12:40.740Z,732
2016-11-28T14:13:21.540Z,728
2016-11-28T14:14:02.333Z,728
2016-11-28T14:14:43.138Z,732
2016-11-28T14:15:24.852Z,732
2016-11-28T14:16:05.654Z,732
2016-11-28T14:16:46.400Z,732
2016-11-28T14:17:27.839Z,732
2016-11-28T14:18:08.615Z,732
2016-11-28T14:18:49.370Z,728
2016-11-28T14:19:30.168Z,728
2016-11-28T14:20:10.952Z,728
2016-11-28T14:20:52.272Z,724
2016-11-28T14:21:32.478Z,724
2016-11-28T14:22:13.284Z,724
2016-11-28T14:22:54.771Z,720
2016-11-28T14:23:34.889Z,720
2016-11-28T14:24:15.693Z,720
2016-11-28T14:24:56.474Z,720
2016-11-28T14:25:37.252Z,720
2016-11-28T14:26:18.049Z,720
2016-11-28T14:26:59.714Z,724
2016-11-28T14:27:40.508Z,724
2016-11-28T14:28:21.292Z,724
2016-11-28T14:29:02.139Z,724
2016-11-28T14:29:42.900Z,720
2016-11-28T14:30:23.691Z,720
2016-11-28T14:31:04.481Z,720
2016-11-28T14:31:45.266Z,720
2016-11-28T14:32:26.041Z,720
2016-11-28T14:33:07.570Z,720
2016-11-28T14:33:49.275Z,720
2016-11-28T14:34:29.203Z,720
2016-11-28T14:35:10.015Z,720
2016-11-28T14:35:50.804Z,720
2016-11-28T14:36:31.589Z,720
2016-11-28T14:37:13.049Z,720
2016-11-28T14:37:53.824Z,720
2016-11-28T14:38:34.609Z,716
2016-11-28T14:39:15.432Z,716
2016-11-28T14:39:56.295Z,716
2016-11-28T14:40:37.071Z,716
2016-11-28T14:41:18.785Z,720
2016-11-28T14:41:58.694Z,720
2016-11-28T14:42:39.496Z,720
2016-11-28T14:43:20.282Z,716
2016-11-28T14:44:01.083Z,716
2016-11-28T14:44:41.860Z,716
2016-11-28T14:45:22.677Z,716
2016-11-28T14:46:03.467Z,720
2016-11-28T14:46:44.223Z,720
2016-11-28T14:47:25.006Z,720
2016-11-28T14:48:05.771Z,720
2016-11-28T14:48:46.571Z,720
2016-11-28T14:49:27.296Z,716
2016-11-28T14:50:08.095Z,720
2016-11-28T14:50:48.890Z,716
2016-11-28T14:51:29.637Z,716
2016-11-28T14:52:10.432Z,720
2016-11-28T14:52:51.190Z,716
2016-11-28T14:53:31.946Z,716
2016-11-28T14:54:12.699Z,716
2016-11-28T14:54:53.521Z,716
2016-11-28T14:55:34.303Z,716
2016-11-28T14:56:15.056Z,716
2016-11-28T14:56:55.854Z,716
2016-11-28T14:57:36.623Z,720
2016-11-28T14:58:17.410Z,716
2016-11-28T14:58:58.220Z,720
2016-11-28T14:59:39.037Z,716
2016-11-28T15:00:19.799Z,716
2016-11-28T15:01:00.570Z,716
2016-11-28T15:01:41.345Z,716
2016-11-28T15:02:22.127Z,716
2016-11-28T15:03:02.930Z,716
2016-11-28T15:03:43.695Z,720
2016-11-28T15:04:24.463Z,716
2016-11-28T15:05:05.249Z,716
2016-11-28T15:05:46.058Z,712
2016-11-28T15:06:26.838Z,716
2016-11-28T15:07:07.603Z,712
2016-11-28T15:07:48.401Z,712
2016-11-28T15:08:29.150Z,716
2016-11-28T15:09:10.815Z,712
2016-11-28T15:09:51.313Z,712
2016-11-28T15:10:31.507Z,716
2016-11-28T15:11:12.295Z,712
2016-11-28T15:11:53.091Z,712
2016-11-28T15:12:33.884Z,712
2016-11-28T15:13:14.661Z,712
2016-11-28T15:13:55.441Z,712
2016-11-28T15:14:36.235Z,712
2016-11-28T15:15:16.988Z,712
2016-11-28T15:15:57.781Z,712
2016-11-28T15:16:38.570Z,712
2016-11-28T15:17:19.864Z,712
2016-11-28T15:18:01.272Z,712
2016-11-28T15:18:42.072Z,712
2016-11-28T15:19:22.844Z,712
2016-11-28T15:20:03.620Z,708
2016-11-28T15:20:44.421Z,708
2016-11-28T15:21:25.177Z,708
2016-11-28T15:22:05.954Z,712
2016-11-28T15:22:46.721Z,712
2016-11-28T15:23:27.491Z,708
2016-11-28T15:24:08.256Z,708
2016-11-28T15:24:49.031Z,708
2016-11-28T15:25:29.819Z,708
2016-11-28T15:26:10.592Z,708
2016-11-28T15:26:51.391Z,708
2016-11-28T15:27:32.197Z,708
2016-11-28T15:28:12.969Z,708
2016-11-28T15:28:53.741Z,708
2016-11-28T15:29:34.538Z,704
2016-11-28T15:30:15.361Z,708
2016-11-28T15:30:56.819Z,708
2016-11-28T15:31:38.328Z,708
2016-11-28T15:32:19.327Z,708
2016-11-28T15:32:59.175Z,708
2016-11-28T15:33:40.757Z,704
2016-11-28T15:34:22.324Z,708
2016-11-28T15:35:02.317Z,708
2016-11-28T15:35:43.089Z,708
2016-11-28T15:36:23.859Z,704
2016-11-28T15:37:04.596Z,704
2016-11-28T15:37:45.366Z,704
2016-11-28T15:38:26.167Z,708
2016-11-28T15:39:06.951Z,704
2016-11-28T15:39:47.714Z,704
2016-11-28T15:40:28.520Z,708
2016-11-28T15:41:09.305Z,708
2016-11-28T15:41:50.105Z,704
2016-11-28T15:42:30.899Z,704
2016-11-28T15:43:11.695Z,704
2016-11-28T15:43:53.941Z,704
2016-11-28T15:44:34.727Z,704
2016-11-28T15:45:15.529Z,704
2016-11-28T15:45:56.295Z,708
2016-11-28T15:46:37.100Z,704
2016-11-28T15:47:19.340Z,704
2016-11-28T15:47:59.378Z,704
2016-11-28T15:48:40.161Z,704
2016-11-28T15:49:20.970Z,704
2016-11-28T15:50:01.761Z,704
2016-11-28T15:50:42.527Z,704
2016-11-28T15:51:24.049Z,704
2016-11-28T15:52:04.849Z,704
2016-11-28T15:52:45.629Z,704
2016-11-28T15:53:26.432Z,704
2016-11-28T15:54:07.200Z,704
2016-11-28T15:54:47.989Z,704
2016-11-28T15:55:28.797Z,700
2016-11-28T15:56:09.590Z,704
2016-11-28T15:56:50.833Z,700
2016-11-28T15:57:31.837Z,700
2016-11-28T15:58:11.955Z,704
2016-11-28T15:58:52.736Z,700
2016-11-28T15:59:33.526Z,700
2016-11-28T16:00:14.333Z,700
2016-11-28T16:00:55.164Z,700
2016-11-28T16:01:35.938Z,704
2016-11-28T16:02:16.872Z,700
2016-11-28T16:02:57.651Z,700
2016-11-28T16:03:39.046Z,700
2016-11-28T16:04:19.869Z,700
2016-11-28T16:05:00.655Z,700
2016-11-28T16:05:42.339Z,700
2016-11-28T16:06:22.246Z,700
2016-11-28T16:07:03.027Z,700
2016-11-28T16:07:43.790Z,700
2016-11-28T16:08:24.581Z,696
2016-11-28T16:09:05.394Z,700
2016-11-28T16:09:46.155Z,700
2016-11-28T16:10:26.956Z,700
2016-11-28T16:11:07.750Z,696
2016-11-28T16:11:49.549Z,696
2016-11-28T16:12:30.321Z,696
2016-11-28T16:13:11.127Z,696
2016-11-28T16:13:51.920Z,696
2016-11-28T16:14:32.700Z,696
2016-11-28T16:15:13.456Z,696
2016-11-28T16:15:54.228Z,696
2016-11-28T16:16:35.022Z,696
2016-11-28T16:17:15.801Z,696
2016-11-28T16:17:56.579Z,696
2016-11-28T16:18:37.399Z,692
2016-11-28T16:19:18.167Z,696
2016-11-28T16:19:59.842Z,696
2016-11-28T16:23:33.483Z,696
2016-11-28T16:24:14.273Z,696
2016-11-28T16:24:55.612Z,696
2016-11-28T16:25:35.820Z,696
2016-11-28T16:26:16.590Z,696
2016-11-28T16:26:57.377Z,696
2016-11-28T16:27:38.150Z,696
2016-11-28T16:28:18.950Z,692
2016-11-28T16:28:59.728Z,692
2016-11-28T16:29:40.494Z,692
2016-11-28T16:30:22.039Z,692
2016-11-28T16:31:02.804Z,692
2016-11-28T16:31:43.585Z,692
2016-11-28T16:32:24.346Z,692
2016-11-28T16:33:05.106Z,692
2016-11-28T16:33:45.883Z,692
2016-11-28T16:34:26.635Z,696
2016-11-28T16:35:07.400Z,692
2016-11-28T16:35:48.175Z,692
2016-11-28T16:36:29.165Z,692
2016-11-28T16:37:09.960Z,692
2016-11-28T16:37:50.781Z,692
2016-11-28T16:38:31.537Z,692
2016-11-28T16:39:12.333Z,692
2016-11-28T16:39:53.127Z,692
2016-11-28T16:40:33.928Z,692
2016-11-28T16:41:14.726Z,692
2016-11-28T16:41:56.039Z,688
2016-11-28T16:42:36.963Z,692
2016-11-28T16:43:17.663Z,700
2016-11-28T16:43:59.119Z,700
2016-11-28T16:44:39.181Z,704
2016-11-28T16:45:19.974Z,708
2016-11-28T16:46:01.617Z,708
2016-11-28T16:46:41.594Z,704
2016-11-28T16:47:22.391Z,704
2016-11-28T16:48:03.166Z,704
2016-11-28T16:48:43.991Z,704
2016-11-28T16:49:24.764Z,704
2016-11-28T16:50:05.558Z,704
2016-11-28T16:50:46.357Z,704
2016-11-28T16:51:27.159Z,704
2016-11-28T16:52:07.926Z,704
2016-11-28T16:52:48.715Z,708
2016-11-28T16:53:29.484Z,708
2016-11-28T16:54:10.231Z,708
2016-11-28T16:54:51.021Z,708
2016-11-28T16:55:31.811Z,704
2016-11-28T16:56:12.599Z,704
2016-11-28T16:56:53.371Z,708
2016-11-28T16:57:34.180Z,708
2016-11-28T16:58:14.944Z,708
2016-11-28T16:58:55.691Z,708
2016-11-28T16:59:36.490Z,708
2016-11-28T17:00:17.234Z,708
2016-11-28T17:00:58.028Z,708
2016-11-28T17:01:38.819Z,704
2016-11-28T17:02:19.640Z,704
2016-11-28T17:03:00.420Z,704
2016-11-28T17:03:41.205Z,704
2016-11-28T17:04:21.967Z,704
2016-11-28T17:05:02.726Z,708
2016-11-28T17:05:43.498Z,704
2016-11-28T17:06:24.268Z,704
2016-11-28T17:07:05.039Z,704
2016-11-28T17:07:45.816Z,704
2016-11-28T17:08:26.587Z,704
2016-11-28T17:09:07.360Z,704
2016-11-28T17:09:48.140Z,708
2016-11-28T17:10:28.961Z,708
2016-11-28T17:11:09.724Z,704
2016-11-28T17:11:50.491Z,708
2016-11-28T17:12:31.286Z,708
2016-11-28T17:13:12.072Z,704
2016-11-28T17:13:53.407Z,704
2016-11-28T17:14:34.194Z,704
2016-11-28T17:15:14.965Z,704
2016-11-28T17:15:55.707Z,708
2016-11-28T17:16:36.510Z,704
2016-11-28T17:17:17.290Z,704
2016-11-28T17:17:58.067Z,704
2016-11-28T17:18:38.832Z,708
2016-11-28T17:19:19.646Z,708
2016-11-28T17:20:00.427Z,708
2016-11-28T17:20:41.180Z,708
2016-11-28T17:21:22.639Z,708
2016-11-28T17:22:02.724Z,704
2016-11-28T17:22:43.502Z,708
2016-11-28T17:23:24.286Z,708
2016-11-28T17:24:05.075Z,708
2016-11-28T17:24:45.828Z,708
2016-11-28T17:25:26.620Z,708
2016-11-28T17:26:07.443Z,708
2016-11-28T17:26:48.215Z,708
2016-11-28T17:27:28.978Z,704
2016-11-28T17:28:09.760Z,704
2016-11-28T17:28:50.523Z,708
2016-11-28T17:29:31.257Z,704
2016-11-28T17:30:12.110Z,704
2016-11-28T17:30:52.884Z,704
2016-11-28T17:31:33.657Z,704
2016-11-28T17:32:14.453Z,704
2016-11-28T17:32:55.213Z,704
2016-11-28T17:33:35.969Z,708
2016-11-28T17:34:16.726Z,708
2016-11-28T17:34:58.145Z,708
2016-11-28T17:35:38.294Z,700
2016-11-28T17:36:19.092Z,708
2016-11-28T17:36:59.868Z,708
2016-11-28T17:37:40.615Z,708
2016-11-28T17:38:21.481Z,708
2016-11-28T17:39:02.260Z,708
2016-11-28T17:39:43.040Z,708
2016-11-28T17:40:23.818Z,708
2016-11-28T17:41:04.597Z,708
2016-11-28T17:41:45.386Z,708
2016-11-28T17:42:26.155Z,708
2016-11-28T17:43:06.961Z,708
2016-11-28T17:43:47.710Z,704
2016-11-28T17:44:28.480Z,704
2016-11-28T17:45:09.240Z,708
2016-11-28T17:45:50.022Z,704
2016-11-28T17:46:30.761Z,704
2016-11-28T17:47:11.572Z,704
2016-11-28T17:47:52.369Z,704
2016-11-28T17:48:33.116Z,704
2016-11-28T17:49:13.924Z,704
2016-11-28T17:49:54.702Z,708
2016-11-28T17:50:35.463Z,708
2016-11-28T17:51:16.246Z,708
2016-11-28T17:51:57.034Z,708
2016-11-28T17:52:37.785Z,708
2016-11-28T17:53:18.610Z,708
2016-11-28T17:53:59.336Z,708
2016-11-28T17:54:40.104Z,708
2016-11-28T17:55:20.864Z,708
2016-11-28T17:56:01.637Z,708
2016-11-28T17:56:42.392Z,708
2016-11-28T17:57:23.167Z,708
2016-11-28T17:58:03.928Z,708
2016-11-28T17:58:44.728Z,708
2016-11-28T17:59:25.546Z,704
2016-11-28T18:00:06.284Z,704
2016-11-28T18:00:47.065Z,704
2016-11-28T18:01:27.850Z,704
2016-11-28T18:02:09.156Z,704
2016-11-28T18:02:49.361Z,704
2016-11-28T18:03:30.129Z,704
2016-11-28T18:04:10.907Z,704
2016-11-28T18:04:51.625Z,704
2016-11-28T18:05:32.413Z,704
2016-11-28T18:06:13.166Z,704
2016-11-28T18:06:53.938Z,704
2016-11-28T18:07:34.675Z,704
2016-11-28T18:08:15.450Z,704
2016-11-28T18:08:56.207Z,704
2016-11-28T18:09:36.962Z,704
2016-11-28T18:10:17.761Z,704
2016-11-28T18:10:58.520Z,704
2016-11-28T18:11:39.292Z,704
2016-11-28T18:12:20.068Z,704
2016-11-28T18:13:00.866Z,704
2016-11-28T18:13:41.638Z,704
2016-11-28T18:14:22.431Z,704
2016-11-28T18:15:03.239Z,704
2016-11-28T18:15:43.978Z,704
2016-11-28T18:16:24.760Z,704
2016-11-28T18:17:05.536Z,704
2016-11-28T18:17:46.280Z,704
2016-11-28T18:18:27.036Z,704
2016-11-28T18:19:07.816Z,704
2016-11-28T18:19:48.599Z,704
2016-11-28T18:20:29.359Z,704
2016-11-28T18:21:10.164Z,704
2016-11-28T18:21:50.943Z,708
2016-11-28T18:22:31.709Z,704
2016-11-28T18:23:12.522Z,708
2016-11-28T18:23:53.292Z,708
2016-11-28T18:24:34.041Z,708
2016-11-28T18:25:14.827Z,708
2016-11-28T18:25:55.590Z,708
2016-11-28T18:26:36.341Z,708
2016-11-28T18:27:17.101Z,708
2016-11-28T18:27:57.868Z,708
2016-11-28T18:28:38.614Z,708
2016-11-28T18:29:19.360Z,708
2016-11-28T18:30:00.146Z,708
2016-11-28T18:30:40.921Z,708
2016-11-28T18:31:21.680Z,708
2016-11-28T18:32:02.498Z,708
2016-11-28T18:32:43.251Z,708
2016-11-28T18:33:24.010Z,708
2016-11-28T18:34:04.771Z,708
2016-11-28T18:34:45.548Z,708
2016-11-28T18:35:26.305Z,704
2016-11-28T18:36:07.097Z,708
2016-11-28T18:36:47.902Z,708
2016-11-28T18:37:28.659Z,704
2016-11-28T18:38:09.436Z,708
2016-11-28T18:38:50.191Z,704
2016-11-28T18:39:30.952Z,704
2016-11-28T18:40:11.713Z,704
2016-11-28T18:40:52.501Z,704
2016-11-28T18:41:33.284Z,708
2016-11-28T18:42:14.033Z,708
2016-11-28T18:42:54.839Z,708
2016-11-28T18:43:35.607Z,708
2016-11-28T18:44:16.372Z,708
2016-11-28T18:44:57.163Z,708
2016-11-28T18:45:37.926Z,704
2016-11-28T18:46:18.660Z,704